Time;durP1;ratioP1;P1;durP2;ratioP2;P2;SDS_P1;SDS_P2;PMS_P1;PMS_P2;Temp;Humidity;BMP_temperature;BMP_pressure;BME280_temperature;BME280_humidity;BME280_pressure;Samples;Min_cycle;Max_cycle;Signal;HPM_P1;HPM_P2
2022/08/24 00:00:22;;;;;;;1999.90;999.90;;;19.70;99.90;;;;;;5052208;28;20571;-71
2022/08/24 00:02:49;;;;;;;1999.90;999.90;;;19.60;99.90;;;;;;5057983;22;20999;-68
2022/08/24 00:05:19;;;;;;;1999.90;999.90;;;19.60;99.90;;;;;;5039485;28;20485;-68
2022/08/24 00:07:47;;;;;;;1999.90;999.90;;;19.60;99.90;;;;;;5046918;28;20466;-68
2022/08/24 00:10:14;;;;;;;1999.90;999.90;;;19.60;99.90;;;;;;5052050;28;20473;-68
2022/08/24 00:12:43;;;;;;;1999.90;999.90;;;19.50;99.90;;;;;;5042623;28;20482;-68
2022/08/24 00:15:11;;;;;;;1999.90;999.90;;;19.50;99.90;;;;;;5043070;28;20518;-68
2022/08/24 00:17:39;;;;;;;1999.90;999.90;;;19.40;99.90;;;;;;5051738;28;20454;-68
2022/08/24 00:20:09;;;;;;;1999.90;999.90;;;19.40;99.90;;;;;;5052015;28;20482;-68
2022/08/24 00:22:35;;;;;;;1999.90;999.90;;;19.40;99.90;;;;;;5041997;28;20486;-69
2022/08/24 00:25:02;;;;;;;1999.90;999.90;;;19.40;99.90;;;;;;5041205;28;20458;-68
2022/08/24 00:27:29;;;;;;;1999.90;999.90;;;19.40;99.90;;;;;;5032081;28;20501;-68
2022/08/24 00:29:57;;;;;;;1999.90;999.90;;;19.30;99.90;;;;;;5032063;28;20505;-69
2022/08/24 00:32:24;;;;;;;1999.90;999.90;;;19.20;99.90;;;;;;5034132;28;20490;-68
2022/08/24 00:34:50;;;;;;;1999.90;999.90;;;19.10;99.90;;;;;;5042447;28;20486;-68
2022/08/24 00:37:17;;;;;;;1999.90;999.90;;;19.10;99.90;;;;;;5042765;28;20450;-68
2022/08/24 00:39:44;;;;;;;1999.90;999.90;;;19.10;99.90;;;;;;5051287;28;20482;-68
2022/08/24 00:42:10;;;;;;;1999.90;999.90;;;19.10;99.90;;;;;;5042834;28;20939;-68
2022/08/24 00:44:37;;;;;;;1999.90;999.90;;;19.10;99.90;;;;;;5043205;28;20450;-68
2022/08/24 00:47:13;;;;;;;1999.90;999.90;;;19.10;99.90;;;;;;5051402;28;20870;-68
2022/08/24 00:49:45;;;;;;;1999.90;999.90;;;19.20;99.90;;;;;;5051523;28;20930;-68
2022/08/24 00:52:16;;;;;;;1999.90;999.90;;;19.20;99.90;;;;;;5042756;28;20594;-68
2022/08/24 00:54:45;;;;;;;1999.90;999.90;;;19.10;99.90;;;;;;5042931;28;20470;-68
2022/08/24 00:57:14;;;;;;;1999.90;999.90;;;19.10;99.90;;;;;;5051672;28;20447;-68
2022/08/24 00:59:46;;;;;;;1999.90;999.90;;;19.10;99.90;;;;;;5051563;28;20474;-68
2022/08/24 01:02:19;;;;;;;1999.90;999.90;;;19.00;99.90;;;;;;5042892;28;20495;-69
2022/08/24 01:04:50;;;;;;;1999.90;999.90;;;19.10;99.90;;;;;;5042820;28;20504;-67
2022/08/24 01:07:17;;;;;;;1999.90;999.90;;;19.10;99.90;;;;;;5051543;28;20539;-68
2022/08/24 01:09:44;;;;;;;1999.90;999.90;;;19.00;99.90;;;;;;5051269;28;20802;-68
2022/08/24 01:12:11;;;;;;;1999.90;999.90;;;18.90;99.90;;;;;;5042291;28;20487;-68
2022/08/24 01:14:38;;;;;;;1999.90;999.90;;;18.90;99.90;;;;;;5021680;28;20438;-68
2022/08/24 01:19:55;;;;;;;1999.90;999.90;;;19.00;99.90;;;;;;5031195;28;21068;-69
2022/08/24 01:22:36;;;;;;;1999.90;999.90;;;19.10;99.90;;;;;;5034083;28;20552;-69
2022/08/24 01:25:05;;;;;;;1999.90;999.90;;;19.20;99.90;;;;;;5041611;28;20466;-68
2022/08/24 01:27:33;;;;;;;1999.90;999.90;;;19.40;99.90;;;;;;5044158;28;20504;-68
2022/08/24 01:30:03;;;;;;;1999.90;999.90;;;19.40;99.90;;;;;;5050886;28;21023;-68
2022/08/24 01:32:30;;;;;;;1999.90;999.90;;;19.50;99.90;;;;;;5043499;28;20569;-67
2022/08/24 01:34:58;;;;;;;1999.90;999.90;;;19.60;99.90;;;;;;5042347;28;20512;-68
2022/08/24 01:37:24;;;;;;;1999.90;999.90;;;19.60;99.90;;;;;;5051211;28;20540;-67
2022/08/24 01:39:55;;;;;;;1999.90;999.90;;;19.70;99.90;;;;;;5050863;28;20512;-68
2022/08/24 01:42:25;;;;;;;1999.90;999.90;;;19.70;99.90;;;;;;5043887;28;20493;-67
2022/08/24 01:44:51;;;;;;;1999.90;999.90;;;19.60;99.90;;;;;;5042604;28;20885;-67
2022/08/24 01:47:18;;;;;;;1999.90;999.90;;;19.60;99.90;;;;;;5050938;28;20450;-67
2022/08/24 01:49:47;;;;;;;1999.90;999.90;;;19.50;99.90;;;;;;5043386;28;20513;-66
2022/08/24 01:52:17;;;;;;;1999.90;999.90;;;19.30;99.90;;;;;;5035826;28;20467;-67
2022/08/24 01:54:44;;;;;;;1999.90;999.90;;;19.10;99.90;;;;;;5034552;28;20438;-67
2022/08/24 01:57:12;;;;;;;1999.90;999.90;;;19.10;99.90;;;;;;5034610;28;20963;-67
2022/08/24 01:59:41;;;;;;;1999.90;999.90;;;19.10;99.90;;;;;;5039538;28;20569;-67
2022/08/24 02:02:11;;;;;;;1999.90;999.90;;;19.00;99.90;;;;;;5036427;28;20553;-67
2022/08/24 02:04:38;;;;;;;1999.90;999.90;;;18.80;99.90;;;;;;5034012;28;20570;-67
2022/08/24 02:07:05;;;;;;;1999.90;999.90;;;18.80;99.90;;;;;;5034706;28;20447;-67
2022/08/24 02:09:31;;;;;;;1999.90;999.90;;;18.70;99.90;;;;;;5042087;28;20513;-67
2022/08/24 02:11:58;;;;;;;1999.90;999.90;;;18.70;99.90;;;;;;5050497;28;20458;-67
2022/08/24 02:14:25;;;;;;;1999.90;999.90;;;18.70;99.90;;;;;;5053848;28;20445;-65
2022/08/24 02:16:53;;;;;;;1999.90;999.90;;;18.80;99.90;;;;;;5054144;28;20446;-67
2022/08/24 02:19:19;;;;;;;1999.90;999.90;;;18.70;99.90;;;;;;5044340;28;21168;-67
2022/08/24 02:21:46;;;;;;;1999.90;999.90;;;18.60;99.90;;;;;;5038816;28;20467;-67
2022/08/24 02:24:13;;;;;;;1999.90;999.90;;;18.60;99.90;;;;;;5034342;28;20509;-67
2022/08/24 02:26:39;;;;;;;1999.90;999.90;;;18.50;99.90;;;;;;5033976;28;20447;-67
2022/08/24 02:29:06;;;;;;;1999.90;999.90;;;18.50;99.90;;;;;;5034614;28;20884;-67
2022/08/24 02:31:33;;;;;;;1999.90;999.90;;;18.50;99.90;;;;;;5041045;28;20523;-68
2022/08/24 02:34:01;;;;;;;1999.90;999.90;;;18.60;99.90;;;;;;5034042;28;20489;-67
2022/08/24 02:36:29;;;;;;;1999.90;999.90;;;18.60;99.90;;;;;;5033961;28;20447;-67
2022/08/24 02:38:55;;;;;;;1999.90;999.90;;;18.60;99.90;;;;;;5033493;28;20541;-68
2022/08/24 02:41:24;;;;;;;1999.90;999.90;;;18.70;99.90;;;;;;5044995;28;20466;-67
2022/08/24 02:43:51;;;;;;;1999.90;999.90;;;18.50;99.90;;;;;;5053715;28;20446;-67
2022/08/24 02:46:18;;;;;;;1999.90;999.90;;;18.50;99.90;;;;;;5053236;28;20943;-67
2022/08/24 02:48:45;;;;;;;1999.90;999.90;;;18.50;99.90;;;;;;5046431;28;20498;-67
2022/08/24 02:51:20;;;;;;;1999.90;999.90;;;18.50;99.90;;;;;;5043603;28;20467;-67
2022/08/24 02:53:47;;;;;;;1999.90;999.90;;;18.40;99.90;;;;;;5053765;28;20483;-67
2022/08/24 02:56:14;;;;;;;1999.90;999.90;;;18.50;99.90;;;;;;5053212;28;20446;-66
2022/08/24 02:58:42;;;;;;;1999.90;999.90;;;18.30;99.90;;;;;;5047267;28;20463;-67
2022/08/24 03:01:09;;;;;;;1999.90;999.90;;;18.30;99.90;;;;;;5042164;28;20490;-67
2022/08/24 03:03:35;;;;;;;1999.90;999.90;;;18.30;99.90;;;;;;5053451;28;20427;-69
2022/08/24 03:06:02;;;;;;;1999.90;999.90;;;18.20;99.90;;;;;;5053316;28;20438;-67
2022/08/24 03:08:30;;;;;;;1999.90;999.90;;;18.10;99.90;;;;;;5049160;28;20463;-67
2022/08/24 03:10:59;;;;;;;1999.90;999.90;;;18.10;99.90;;;;;;5040962;28;20455;-67
2022/08/24 03:13:25;;;;;;;1999.90;999.90;;;18.20;99.90;;;;;;5013432;28;20452;-67
2022/08/24 03:15:52;;;;;;;1999.90;999.90;;;18.10;99.90;;;;;;5013188;28;20845;-69
2022/08/24 03:18:20;;;;;;;1999.90;999.90;;;18.10;99.90;;;;;;5015215;28;20452;-68
2022/08/24 03:20:46;;;;;;;1999.90;999.90;;;18.00;99.90;;;;;;5040059;28;20479;-65
2022/08/24 03:23:13;;;;;;;1999.90;999.90;;;18.00;99.90;;;;;;5051389;28;20459;-67
2022/08/24 03:25:41;;;;;;;1999.90;999.90;;;17.90;99.90;;;;;;5052402;28;20934;-68
2022/08/24 03:28:08;;;;;;;1999.90;999.90;;;17.90;99.90;;;;;;5051967;28;20450;-67
2022/08/24 03:30:34;;;;;;;1999.90;999.90;;;17.90;99.90;;;;;;5041153;28;20443;-67
2022/08/24 03:33:01;;;;;;;1999.90;999.90;;;17.80;99.90;;;;;;5049239;28;20462;-67
2022/08/24 03:35:28;;;;;;;1999.90;999.90;;;17.60;99.90;;;;;;5052273;28;20496;-67
2022/08/24 03:37:54;;;;;;;1999.90;999.90;;;17.50;99.90;;;;;;5052398;28;20447;-67
2022/08/24 03:40:22;;;;;;;1999.90;999.90;;;17.30;99.90;;;;;;5041567;28;20491;-68
2022/08/24 03:42:50;;;;;;;1999.90;999.90;;;17.10;99.90;;;;;;5047439;28;20478;-68
2022/08/24 03:45:16;;;;;;;1999.90;999.90;;;17.10;99.90;;;;;;5052085;28;20454;-67
2022/08/24 03:47:44;;;;;;;1999.90;999.90;;;17.10;99.90;;;;;;5052138;28;20949;-68
2022/08/24 03:50:12;;;;;;;1999.90;999.90;;;17.00;99.90;;;;;;5042815;28;20466;-69
2022/08/24 03:52:40;;;;;;;1999.90;999.90;;;16.90;99.90;;;;;;5045723;28;20994;-68
2022/08/24 03:55:09;;;;;;;1999.90;999.90;;;16.90;99.90;;;;;;5051776;28;21108;-68
2022/08/24 03:57:35;;;;;;;1999.90;999.90;;;16.90;99.90;;;;;;5052276;28;20442;-68
2022/08/24 04:00:05;;;;;;;1999.90;999.90;;;16.80;99.90;;;;;;5037125;28;20487;-68
2022/08/24 04:02:32;;;;;;;1999.90;999.90;;;16.80;99.90;;;;;;5043172;28;20541;-68
2022/08/24 04:04:59;;;;;;;1999.90;999.90;;;16.90;99.90;;;;;;5051531;28;20457;-67
2022/08/24 04:07:26;;;;;;;1999.90;999.90;;;16.80;99.90;;;;;;5052097;28;20446;-66
2022/08/24 04:09:53;;;;;;;1999.90;999.90;;;16.70;99.90;;;;;;5044423;28;20520;-68
2022/08/24 04:12:19;;;;;;;1999.90;999.90;;;16.90;99.90;;;;;;5038161;28;20555;-70
2022/08/24 04:14:46;;;;;;;1999.90;999.90;;;16.70;99.90;;;;;;5043363;28;20438;-70
2022/08/24 04:17:14;;;;;;;1999.90;999.90;;;16.50;99.90;;;;;;5051522;28;20454;-69
2022/08/24 04:19:56;;;;;;;1999.90;999.90;;;16.50;99.90;;;;;;5051781;28;20446;-70
2022/08/24 04:22:23;;;;;;;1999.90;999.90;;;16.50;99.90;;;;;;5047625;28;20459;-68
2022/08/24 04:24:49;;;;;;;1999.90;999.90;;;16.40;99.90;;;;;;5042742;28;20503;-67
2022/08/24 04:27:16;;;;;;;1999.90;999.90;;;16.30;99.90;;;;;;5051777;28;20446;-70
2022/08/24 04:29:43;;;;;;;1999.90;999.90;;;16.40;99.90;;;;;;5051450;28;20867;-69
2022/08/24 04:32:09;;;;;;;1999.90;999.90;;;16.40;99.90;;;;;;5048301;28;20491;-68
2022/08/24 04:34:38;;;;;;;1999.90;999.90;;;16.40;99.90;;;;;;5042818;28;20443;-68
2022/08/24 04:37:05;;;;;;;1999.90;999.90;;;16.50;99.90;;;;;;5051688;28;20461;-70
2022/08/24 04:39:33;;;;;;;1999.90;999.90;;;16.70;99.90;;;;;;5051326;28;20450;-70
2022/08/24 04:41:59;;;;;;;1999.90;999.90;;;16.70;99.90;;;;;;5048570;28;20458;-70
2022/08/24 04:44:26;;;;;;;1999.90;999.90;;;16.80;99.90;;;;;;5031635;28;20566;-69
2022/08/24 04:46:53;;;;;;;1999.90;999.90;;;16.90;99.90;;;;;;5031645;28;20451;-68
2022/08/24 04:49:20;;;;;;;1999.90;999.90;;;16.80;99.90;;;;;;5031460;28;20447;-70
2022/08/24 04:51:48;;;;;;;1999.90;999.90;;;16.70;99.90;;;;;;5030736;28;21006;-70
2022/08/24 04:54:15;;;;;;;1999.90;999.90;;;16.70;99.90;;;;;;5041072;28;20447;-69
2022/08/24 04:56:42;;;;;;;1999.90;999.90;;;16.60;99.90;;;;;;5051059;28;20449;-69
2022/08/24 04:59:09;;;;;;;1999.90;999.90;;;16.50;99.90;;;;;;5051182;28;20450;-70
2022/08/24 05:01:35;;;;;;;1999.90;999.90;;;16.30;99.90;;;;;;5050991;28;20490;-68
2022/08/24 05:04:03;;;;;;;1999.90;999.90;;;16.50;99.90;;;;;;5040741;28;20475;-71
2022/08/24 05:06:32;;;;;;;1999.90;999.90;;;16.60;99.90;;;;;;5041379;28;20484;-70
2022/08/24 05:09:01;;;;;;;1999.90;999.90;;;16.70;99.90;;;;;;5043039;28;20446;-70
2022/08/24 05:11:28;;;;;;;1999.90;999.90;;;16.80;99.90;;;;;;5050711;28;20462;-70
2022/08/24 05:13:56;;;;;;;1999.90;999.90;;;16.90;99.90;;;;;;5051433;28;20462;-70
2022/08/24 05:16:24;;;;;;;1999.90;999.90;;;17.00;99.90;;;;;;5042465;28;20470;-70
2022/08/24 05:18:51;;;;;;;1999.90;999.90;;;17.00;99.90;;;;;;5042695;28;20443;-68
2022/08/24 05:21:20;;;;;;;1999.90;999.90;;;17.20;99.90;;;;;;5049975;28;21001;-68
2022/08/24 05:23:47;;;;;;;1999.90;999.90;;;17.50;99.90;;;;;;5054126;28;20442;-68
2022/08/24 05:26:17;;;;;;;1999.90;999.90;;;17.80;99.90;;;;;;5046581;28;20478;-66
2022/08/24 05:28:44;;;;;;;1999.90;999.90;;;17.80;99.90;;;;;;5046132;28;20930;-69
2022/08/24 05:31:13;;;;;;;1999.90;999.90;;;17.60;99.90;;;;;;5054548;28;20835;-67
2022/08/24 05:33:40;;;;;;;1999.90;999.90;;;17.80;99.90;;;;;;5054858;28;20515;-68
2022/08/24 05:36:15;;;;;;;1999.90;999.90;;;18.00;99.90;;;;;;5046329;28;20535;-68
2022/08/24 05:38:42;;;;;;;1999.90;999.90;;;18.20;99.90;;;;;;5046137;28;20450;-67
2022/08/24 05:41:08;;;;;;;1999.90;999.90;;;18.50;99.90;;;;;;5054462;28;20490;-67
2022/08/24 05:43:37;;;;;;;1999.90;999.90;;;18.80;99.90;;;;;;5054454;28;20496;-69
2022/08/24 05:46:03;;;;;;;1999.90;999.90;;;18.80;99.90;;;;;;5046674;28;20554;-70
2022/08/24 05:48:30;;;;;;;1999.90;999.90;;;18.90;99.90;;;;;;5046113;28;20445;-69
2022/08/24 05:50:57;;;;;;;1999.90;999.90;;;19.10;99.90;;;;;;5054680;28;20855;-68
2022/08/24 05:53:25;;;;;;;1999.90;999.90;;;19.20;99.90;;;;;;5054146;28;20453;-69
2022/08/24 05:55:53;;;;;;;1999.90;999.90;;;19.30;99.90;;;;;;5047977;28;21020;-69
2022/08/24 05:58:20;;;;;;;1999.90;999.90;;;19.60;99.90;;;;;;5045180;28;20451;-69
2022/08/24 06:03:19;;;;;;;1999.90;999.90;;;19.90;99.90;;;;;;5049500;22;20986;-71
2022/08/24 06:05:47;;;;;;;1999.90;999.90;;;20.10;99.90;;;;;;5018390;28;20488;-71
2022/08/24 06:08:14;;;;;;;1999.90;999.90;;;20.20;99.90;;;;;;5045072;28;20497;-71
2022/08/24 06:10:43;;;;;;;1999.90;999.90;;;20.40;99.90;;;;;;5054876;28;20446;-68
2022/08/24 06:13:10;;;;;;;1999.90;999.90;;;20.30;99.90;;;;;;5054822;28;20561;-70
2022/08/24 06:15:38;;;;;;;1999.90;999.90;;;20.30;99.90;;;;;;5049569;28;20471;-69
2022/08/24 06:18:07;;;;;;;1999.90;999.90;;;20.40;99.90;;;;;;5044321;28;20849;-70
2022/08/24 06:20:38;;;;;;;1999.90;999.90;;;20.70;99.90;;;;;;5055496;28;21080;-70
2022/08/24 06:23:05;;;;;;;1999.90;999.90;;;20.70;99.90;;;;;;5055296;28;20895;-70
2022/08/24 06:28:15;;;;;;;1999.90;999.90;;;20.80;99.90;;;;;;5042600;28;20450;-70
2022/08/24 06:30:42;;;;;;;1999.90;999.90;;;20.90;99.90;;;;;;5046091;28;20431;-69
2022/08/24 06:33:10;;;;;;;1999.90;999.90;;;21.00;99.90;;;;;;5045515;28;20475;-70
2022/08/24 06:35:37;;;;;;;1999.90;999.90;;;21.00;99.90;;;;;;5045226;28;20438;-70
2022/08/24 06:38:04;;;;;;;1999.90;999.90;;;21.00;99.90;;;;;;5054222;28;20442;-70
2022/08/24 06:40:30;;;;;;;1999.90;999.90;;;21.10;99.90;;;;;;5054439;28;20453;-71
2022/08/24 06:43:02;;;;;;;1999.90;999.90;;;21.30;99.90;;;;;;5045773;28;20474;-71
2022/08/24 06:45:29;;;;;;;1999.90;999.90;;;21.60;99.90;;;;;;5029919;28;20462;-69
2022/08/24 06:47:56;;;;;;;1999.90;999.90;;;21.50;99.90;;;;;;5045726;28;20541;-71
2022/08/24 06:50:25;;;;;;;1999.90;999.90;;;21.70;99.90;;;;;;5054387;28;20533;-71
2022/08/24 06:52:52;;;;;;;1999.90;999.90;;;21.90;99.90;;;;;;5046296;28;20486;-70
2022/08/24 06:55:18;;;;;;;1999.90;999.90;;;22.10;99.90;;;;;;5044757;28;20447;-70
2022/08/24 06:57:45;;;;;;;1999.90;999.90;;;22.10;99.90;;;;;;5054351;28;20807;-70
2022/08/24 07:00:13;;;;;;;1999.90;999.90;;;22.20;99.90;;;;;;5053952;28;20996;-71
2022/08/24 07:02:41;;;;;;;1999.90;999.90;;;22.40;99.90;;;;;;5047050;28;20853;-73
2022/08/24 07:05:08;;;;;;;1999.90;999.90;;;22.50;99.90;;;;;;5041417;28;20458;-71
2022/08/24 07:07:36;;;;;;;1999.90;999.90;;;22.70;99.90;;;;;;5046892;28;20525;-71
2022/08/24 07:10:04;;;;;;;1999.90;999.90;;;23.00;99.90;;;;;;5053462;28;20450;-71
2022/08/24 07:12:31;;;;;;;1999.90;999.90;;;23.10;99.90;;;;;;5048650;28;20486;-71
2022/08/24 07:14:57;;;;;;;1999.90;999.90;;;23.20;99.90;;;;;;5041153;28;20449;-72
2022/08/24 07:17:24;;;;;;;1999.90;999.90;;;23.40;99.90;;;;;;5053321;28;20536;-72
2022/08/24 07:19:51;;;;;;;1999.90;999.90;;;23.60;99.90;;;;;;5053152;28;20862;-73
2022/08/24 07:22:17;;;;;;;1999.90;999.90;;;23.50;99.90;;;;;;5050148;28;20681;-71
2022/08/24 07:24:46;;;;;;;1999.90;999.90;;;23.50;99.90;;;;;;5035638;28;20466;-72
2022/08/24 07:27:13;;;;;;;1999.90;999.90;;;23.50;99.90;;;;;;5050994;28;20450;-71
2022/08/24 07:29:40;;;;;;;1999.90;999.90;;;23.70;99.90;;;;;;5053083;28;20442;-70
2022/08/24 07:32:06;;;;;;;1999.90;999.90;;;23.80;99.90;;;;;;5052790;28;20884;-70
2022/08/24 07:34:33;;;;;;;1999.90;999.90;;;23.80;99.90;;;;;;5039435;28;20459;-71
2022/08/24 07:37:00;;;;;;;1999.90;999.90;;;23.90;99.90;;;;;;5049146;28;20454;-73
2022/08/24 07:39:27;;;;;;;1999.90;999.90;;;24.10;99.90;;;;;;5052842;28;20450;-71
2022/08/24 07:41:56;;;;;;;1999.90;999.90;;;24.10;99.90;;;;;;5052449;28;21041;-71
2022/08/24 07:44:23;;;;;;;1999.90;999.90;;;24.00;99.90;;;;;;5041673;28;20512;-70
2022/08/24 07:46:49;;;;;;;1999.90;999.90;;;24.20;99.90;;;;;;5046463;28;20818;-72
2022/08/24 07:49:16;;;;;;;1999.90;999.90;;;24.30;99.90;;;;;;5052919;28;20450;-72
2022/08/24 07:51:43;;;;;;;1999.90;999.90;;;24.60;99.90;;;;;;5052810;28;20467;-72
2022/08/24 07:54:10;;;;;;;1999.90;999.90;;;25.00;99.90;;;;;;5043325;28;20466;-70
2022/08/24 07:56:37;;;;;;;1999.90;999.90;;;24.90;99.40;;;;;;5045483;28;20448;-70
2022/08/24 07:59:05;;;;;;;1999.90;999.90;;;25.10;98.90;;;;;;5052553;28;20458;-72
2022/08/24 08:01:33;;;;;;;1999.90;999.90;;;25.20;98.70;;;;;;5052009;28;20989;-72
2022/08/24 08:04:00;;;;;;;1999.90;999.90;;;25.30;98.50;;;;;;5047004;28;20896;-72
2022/08/24 08:06:26;;;;;;;1999.90;999.90;;;25.50;98.20;;;;;;5043496;28;21004;-72
2022/08/24 08:08:53;;;;;;;1999.90;999.90;;;25.70;98.10;;;;;;5052018;28;20875;-71
2022/08/24 08:11:20;;;;;;;1999.90;999.90;;;25.80;97.80;;;;;;5052289;28;20474;-71
2022/08/24 08:13:46;;;;;;;1999.90;999.90;;;25.90;97.50;;;;;;5048337;28;20462;-72
2022/08/24 08:16:15;;;;;;;1999.90;999.90;;;25.90;97.50;;;;;;5043200;28;20961;-72
2022/08/24 08:18:42;;;;;;;1999.90;999.90;;;26.10;97.00;;;;;;5051928;28;20939;-72
2022/08/24 08:24:13;;;;;;;1999.90;999.90;;;26.10;97.10;;;;;;5051149;28;20527;-71
2022/08/24 08:26:39;;;;;;;1999.90;999.90;;;26.20;96.80;;;;;;5039337;28;20918;-71
2022/08/24 08:29:07;;;;;;;1999.90;999.90;;;26.50;96.50;;;;;;5052103;28;20454;-71
2022/08/24 08:31:34;;;;;;;1999.90;999.90;;;26.50;96.00;;;;;;5051721;28;20455;-71
2022/08/24 08:34:01;;;;;;;1999.90;999.90;;;26.40;95.40;;;;;;5048233;28;20494;-71
2022/08/24 08:36:28;;;;;;;1999.90;999.90;;;26.50;95.70;;;;;;5043826;28;20508;-72
2022/08/24 08:38:55;;;;;;;1999.90;999.90;;;26.70;95.70;;;;;;5051652;28;20446;-73
2022/08/24 08:41:50;;;;;;;1999.90;999.90;;;26.80;95.10;;;;;;5051764;28;20490;-72
2022/08/24 08:44:25;;;;;;;1999.90;999.90;;;26.80;94.90;;;;;;5046821;28;20470;-69
2022/08/24 08:47:06;;;;;;;1999.90;999.90;;;26.90;94.70;;;;;;5047422;28;20525;-72
2022/08/24 08:50:02;;;;;;;1999.90;999.90;;;26.90;94.60;;;;;;5051780;28;20438;-72
2022/08/24 08:52:58;;;;;;;1999.90;999.90;;;26.70;94.50;;;;;;5051859;28;20459;-72
2022/08/24 08:55:32;;;;;;;1999.90;999.90;;;27.00;94.70;;;;;;5041969;28;20524;-70
2022/08/24 08:58:13;;;;;;;1999.90;999.90;;;26.80;94.00;;;;;;5044939;28;20871;-70
2022/08/24 09:00:52;;;;;;;1999.90;999.90;;;26.90;94.20;;;;;;5055612;28;20911;-70
2022/08/24 09:03:57;;;;;;;1999.90;999.90;;;27.10;93.90;;;;;;5050924;28;20502;-72
2022/08/24 09:06:42;;;;;;;1999.90;999.90;;;27.20;93.70;;;;;;5043597;28;20450;-72
2022/08/24 09:09:25;;;;;;;1999.90;999.90;;;27.30;93.60;;;;;;5035638;28;20895;-69
2022/08/24 09:12:03;;;;;;;1999.90;999.90;;;27.40;92.70;;;;;;5035510;28;20459;-72
2022/08/24 09:14:56;;;;;;;1999.90;999.90;;;27.50;93.00;;;;;;5038386;28;20976;-72
2022/08/24 09:17:44;;;;;;;1999.90;999.90;;;27.40;92.90;;;;;;5047080;28;20454;-72
2022/08/24 09:20:31;;;;;;;1999.90;999.90;;;27.50;92.80;;;;;;5055593;28;20879;-71
2022/08/24 09:23:09;;;;;;;1999.90;999.90;;;27.70;92.50;;;;;;5050768;28;20527;-71
2022/08/24 09:25:46;;;;;;;1999.90;999.90;;;27.70;92.10;;;;;;5041891;28;20446;-69
2022/08/24 09:28:21;;;;;;;1999.90;999.90;;;27.70;92.20;;;;;;5055636;28;20499;-72
2022/08/24 09:31:04;;;;;;;1999.90;999.90;;;27.80;92.10;;;;;;5055709;28;20449;-71
2022/08/24 09:33:37;;;;;;;1999.90;999.90;;;28.20;91.90;;;;;;5044039;28;20524;-72
2022/08/24 09:36:12;;;;;;;1999.90;999.90;;;28.10;91.40;;;;;;5038424;28;20451;-71
2022/08/24 09:38:58;;;;;;;1999.90;999.90;;;28.10;91.50;;;;;;5035663;28;20477;-71
2022/08/24 09:41:55;;;;;;;1999.90;999.90;;;28.10;91.10;;;;;;5035378;28;20485;-71
2022/08/24 09:44:43;;;;;;;1999.90;999.90;;;28.10;90.90;;;;;;5042435;28;20461;-70
2022/08/24 09:47:31;;;;;;;1999.90;999.90;;;28.20;90.90;;;;;;5053364;28;20465;-70
2022/08/24 09:50:32;;;;;;;1999.90;999.90;;;27.90;91.10;;;;;;5037993;28;20454;-71
2022/08/24 09:53:34;;;;;;;1999.90;999.90;;;27.90;91.40;;;;;;5046257;28;20482;-70
2022/08/24 09:56:30;;;;;;;1999.90;999.90;;;28.00;91.00;;;;;;5039686;28;21049;-70
2022/08/24 09:59:11;;;;;;;1999.90;999.90;;;28.20;90.50;;;;;;5022501;28;20513;-71
2022/08/24 10:01:43;;;;;;;1999.90;999.90;;;28.20;90.00;;;;;;5035658;28;20498;-72
2022/08/24 10:04:20;;;;;;;1999.90;999.90;;;28.20;90.10;;;;;;5044460;28;20447;-72
2022/08/24 10:06:59;;;;;;;1999.90;999.90;;;28.30;89.90;;;;;;5046032;28;20889;-71
2022/08/24 10:10:05;;;;;;;1999.90;999.90;;;28.20;87.80;;;;;;5032858;28;20459;-69
2022/08/24 10:12:46;;;;;;;1999.90;999.90;;;28.20;88.00;;;;;;5041226;28;20463;-71
2022/08/24 10:15:19;;;;;;;1999.90;999.90;;;28.60;87.50;;;;;;5052536;28;20521;-71
2022/08/24 10:18:00;;;;;;;1999.90;999.90;;;28.80;86.70;;;;;;5054933;28;20430;-71
2022/08/24 10:20:46;;;;;;;1999.90;999.90;;;28.70;85.90;;;;;;5049514;28;20472;-71
2022/08/24 10:23:36;;;;;;;1999.90;999.90;;;28.50;87.20;;;;;;5043097;28;20496;-70
2022/08/24 10:26:19;;;;;;;1999.90;999.90;;;28.30;86.10;;;;;;5051660;28;20855;-71
2022/08/24 10:29:05;;;;;;;1999.90;999.90;;;28.50;86.70;;;;;;5054590;28;20438;-69
2022/08/24 10:31:45;;;;;;;1999.90;999.90;;;28.70;84.40;;;;;;5045191;28;20482;-71
2022/08/24 10:34:27;;;;;;;1999.90;999.90;;;28.70;85.50;;;;;;5046259;28;20437;-71
2022/08/24 10:37:14;;;;;;;1999.90;999.90;;;28.60;82.20;;;;;;5054529;28;20497;-71
2022/08/24 10:40:13;;;;;;;1999.90;999.90;;;28.70;82.90;;;;;;5053666;28;20450;-71
2022/08/24 10:46:40;;;;;;;1999.90;999.90;;;28.90;83.70;;;;;;5023003;28;20514;-71
2022/08/24 10:49:45;;;;;;;1999.90;999.90;;;29.20;81.50;;;;;;5023606;28;20532;-69
2022/08/24 10:52:57;;;;;;;1999.90;999.90;;;28.90;81.60;;;;;;5034446;28;20482;-69
2022/08/24 10:55:26;;;;;;;1999.90;999.90;;;28.70;80.70;;;;;;4964657;28;20446;-72
2022/08/24 10:58:07;;;;;;;1999.90;999.90;;;28.90;81.20;;;;;;5035940;28;20462;-71
2022/08/24 11:00:34;;;;;;;1999.90;999.90;;;28.80;79.80;;;;;;5047727;28;20463;-72
2022/08/24 11:03:12;;;;;;;1999.90;999.90;;;28.90;79.10;;;;;;5041641;28;20483;-71
2022/08/24 11:05:44;;;;;;;1999.90;999.90;;;29.00;79.90;;;;;;5053264;28;20870;-72
2022/08/24 11:08:19;;;;;;;1999.90;999.90;;;29.00;79.50;;;;;;5054165;28;20477;-72
2022/08/24 11:11:02;;;;;;;1999.90;999.90;;;28.90;80.40;;;;;;5045863;28;20459;-71
2022/08/24 11:13:28;;;;;;;1999.90;999.90;;;28.70;80.60;;;;;;5041363;28;20550;-70
2022/08/24 11:15:58;;;;;;;1999.90;999.90;;;28.90;79.70;;;;;;5049502;28;20450;-71
2022/08/24 11:18:44;;;;;;;1999.90;999.90;;;29.00;79.00;;;;;;5053882;28;20484;-71
2022/08/24 11:21:18;;;;;;;1999.90;999.90;;;29.10;77.00;;;;;;5044011;28;20463;-71
2022/08/24 11:23:46;;;;;;;1999.90;999.90;;;29.30;74.60;;;;;;5041408;28;20521;-71
2022/08/24 11:26:21;;;;;;;1999.90;999.90;;;29.30;72.40;;;;;;5051479;28;20843;-71
2022/08/24 11:28:53;;;;;;;1999.90;999.90;;;29.50;74.90;;;;;;5053730;28;20484;-75
2022/08/24 11:31:26;;;;;;;1999.90;999.90;;;29.70;74.90;;;;;;5053103;28;20476;-72
2022/08/24 11:34:00;;;;;;;1999.90;999.90;;;29.80;72.20;;;;;;5040697;28;20471;-70
2022/08/24 11:36:28;;;;;;;1999.90;999.90;;;29.90;71.90;;;;;;5013452;28;20487;-71
2022/08/24 11:39:12;;;;;;;1999.90;999.90;;;29.80;72.60;;;;;;5013649;28;20444;-72
2022/08/24 11:41:52;;;;;;;1999.90;999.90;;;29.90;73.50;;;;;;5013299;28;20474;-70
2022/08/24 11:44:41;;;;;;;1999.90;999.90;;;29.70;75.00;;;;;;5043390;28;20457;-69
2022/08/24 11:47:38;;;;;;;1999.90;999.90;;;29.60;74.10;;;;;;5053169;28;20431;-70
2022/08/24 11:50:19;;;;;;;1999.90;999.90;;;29.60;75.20;;;;;;5044682;28;20668;-72
2022/08/24 11:52:58;;;;;;;1999.90;999.90;;;29.50;75.90;;;;;;5048752;28;20510;-71
2022/08/24 11:55:33;;;;;;;1999.90;999.90;;;29.50;76.20;;;;;;5036265;28;20508;-72
2022/08/24 11:58:12;;;;;;;1999.90;999.90;;;29.50;74.80;;;;;;5052674;28;20511;-70
2022/08/24 12:00:46;;;;;;;1999.90;999.90;;;29.50;74.40;;;;;;5053619;28;20454;-70
2022/08/24 12:03:29;;;;;;;1999.90;999.90;;;29.30;74.90;;;;;;5066511;22;20498;-69
2022/08/24 12:06:07;;;;;;;1999.90;999.90;;;29.50;75.70;;;;;;5070088;28;20445;-71
2022/08/24 12:08:41;;;;;;;1999.90;999.90;;;29.80;72.90;;;;;;5072386;28;20510;-71
2022/08/24 12:11:17;;;;;;;1999.90;999.90;;;29.90;71.40;;;;;;5072109;28;20435;-71
2022/08/24 12:13:49;;;;;;;1999.90;999.90;;;29.90;70.90;;;;;;5042153;28;20549;-71
2022/08/24 12:16:22;;;;;;;1999.90;999.90;;;29.90;72.30;;;;;;5041005;28;20887;-71
2022/08/24 12:18:55;;;;;;;1999.90;999.90;;;29.90;71.10;;;;;;5037427;28;20489;-71
2022/08/24 12:21:26;;;;;;;1999.90;999.90;;;29.90;70.30;;;;;;5031804;28;20447;-71
2022/08/24 12:24:01;;;;;;;1999.90;999.90;;;29.80;69.70;;;;;;5031961;28;20903;-71
2022/08/24 12:26:36;;;;;;;1999.90;999.90;;;29.80;70.40;;;;;;5034372;28;21108;-71
2022/08/24 12:29:08;;;;;;;1999.90;999.90;;;29.90;69.50;;;;;;5043672;28;20956;-71
2022/08/24 12:31:41;;;;;;;1999.90;999.90;;;29.90;68.50;;;;;;5048749;28;20480;-71
2022/08/24 12:34:14;;;;;;;1999.90;999.90;;;30.00;68.00;;;;;;5038877;28;20784;-71